Time;durP1;ratioP1;P1;durP2;ratioP2;P2;SDS_P1;SDS_P2;PMS_P1;PMS_P2;Temp;Humidity;BMP_temperature;BMP_pressure;BME280_temperature;BME280_humidity;BME280_pressure;Samples;Min_cycle;Max_cycle;Signal;HPM_P1;HPM_P2
2021/11/30 00:00:57;;;;;;;5.90;5.30;;;4.60;99.90;;;;;;5028189;28;20671;-96
2021/11/30 00:03:24;;;;;;;5.13;4.72;;;4.60;99.90;;;;;;5039452;28;20191;-95
2021/11/30 00:05:51;;;;;;;6.07;5.47;;;4.60;99.90;;;;;;5040112;28;20222;-96
2021/11/30 00:08:19;;;;;;;6.18;5.38;;;4.60;99.90;;;;;;5042285;28;20215;-95
2021/11/30 00:10:46;;;;;;;5.78;5.22;;;4.50;99.90;;;;;;5043038;28;20232;-95
2021/11/30 00:13:16;;;;;;;5.45;4.95;;;4.60;99.90;;;;;;5043549;28;20245;-95
2021/11/30 00:15:43;;;;;;;5.20;4.70;;;4.60;99.90;;;;;;5042865;28;20210;-95
2021/11/30 00:18:09;;;;;;;6.07;5.47;;;4.60;99.90;;;;;;5044195;28;20254;-95
2021/11/30 00:20:37;;;;;;;8.25;5.50;;;4.60;99.90;;;;;;5044084;28;20221;-95
2021/11/30 00:23:03;;;;;;;6.65;5.47;;;4.60;99.90;;;;;;5044747;28;20214;-96
2021/11/30 00:25:30;;;;;;;7.40;6.60;;;4.60;99.90;;;;;;5044006;28;20226;-95
2021/11/30 00:27:57;;;;;;;6.57;5.93;;;4.60;99.90;;;;;;5042619;28;20696;-95
2021/11/30 00:30:25;;;;;;;8.07;6.10;;;4.60;99.90;;;;;;5040659;28;20366;-95
2021/11/30 00:32:53;;;;;;;6.53;5.80;;;4.60;99.90;;;;;;5039675;28;20182;-94
2021/11/30 00:35:21;;;;;;;7.47;6.65;;;4.60;99.90;;;;;;5025267;28;20219;-95
2021/11/30 00:37:48;;;;;;;8.60;6.32;;;4.50;99.90;;;;;;5041608;28;20198;-94
2021/11/30 00:40:15;;;;;;;9.35;7.75;;;4.60;99.90;;;;;;5041423;28;20232;-95
2021/11/30 00:42:41;;;;;;;7.97;6.85;;;4.60;99.90;;;;;;5042153;28;20225;-93
2021/11/30 00:45:09;;;;;;;7.50;6.10;;;4.60;99.90;;;;;;5040917;28;20278;-95
2021/11/30 00:47:45;;;;;;;9.25;7.60;;;4.60;99.90;;;;;;5043267;28;20194;-95
2021/11/30 00:50:13;;;;;;;8.88;7.35;;;4.60;99.90;;;;;;5046627;28;20240;-96
2021/11/30 00:52:40;;;;;;;9.85;7.38;;;4.60;99.90;;;;;;5046338;28;20222;-95
2021/11/30 00:55:07;;;;;;;9.60;7.80;;;4.60;99.90;;;;;;5042693;28;20638;-94
2021/11/30 00:57:38;;;;;;;9.45;8.52;;;4.60;99.90;;;;;;5041081;28;20237;-95
2021/11/30 01:00:06;;;;;;;9.13;7.40;;;4.60;99.90;;;;;;5042030;28;20656;-95
2021/11/30 01:02:33;;;;;;;10.15;7.97;;;4.60;99.90;;;;;;5038102;28;20233;-88
2021/11/30 01:05:01;;;;;;;8.23;7.28;;;4.60;99.90;;;;;;5033735;28;20278;-87
2021/11/30 01:07:27;;;;;;;9.85;7.55;;;4.50;99.90;;;;;;5034592;28;20230;-91
2021/11/30 01:09:54;;;;;;;9.90;8.02;;;4.50;99.90;;;;;;5035654;28;20305;-94
2021/11/30 01:12:20;;;;;;;12.40;7.80;;;4.60;99.90;;;;;;5035649;28;20241;-92
2021/11/30 01:14:47;;;;;;;9.10;8.10;;;4.50;99.90;;;;;;5035215;28;20272;-94
2021/11/30 01:17:13;;;;;;;8.45;7.18;;;4.50;99.90;;;;;;5034499;28;20307;-92
2021/11/30 01:19:40;;;;;;;11.40;7.93;;;4.50;99.90;;;;;;5034293;28;20226;-92
2021/11/30 01:22:08;;;;;;;12.40;9.05;;;4.40;99.90;;;;;;5033886;28;20302;-90
2021/11/30 01:24:35;;;;;;;15.02;9.13;;;4.40;99.90;;;;;;5034391;28;20234;-90
2021/11/30 01:27:01;;;;;;;11.13;8.75;;;4.30;99.90;;;;;;5016637;28;20281;-91
2021/11/30 01:29:28;;;;;;;11.68;8.93;;;4.40;99.90;;;;;;5034622;28;20218;-94
2021/11/30 01:31:54;;;;;;;12.23;8.13;;;4.40;99.90;;;;;;5034537;28;20611;-92
2021/11/30 01:34:21;;;;;;;10.73;8.45;;;4.40;99.90;;;;;;5034210;28;20229;-92
2021/11/30 01:36:48;;;;;;;10.65;8.73;;;4.40;99.90;;;;;;5034773;28;20262;-92
2021/11/30 01:39:16;;;;;;;10.40;8.68;;;4.50;99.90;;;;;;5033883;28;20545;-89
2021/11/30 01:41:45;;;;;;;12.48;8.85;;;4.40;99.90;;;;;;5033949;28;20275;-89
2021/11/30 01:44:24;;;;;;;9.95;8.07;;;4.40;99.90;;;;;;5032384;28;20277;-88
2021/11/30 01:47:05;;;;;;;10.60;9.50;;;4.40;99.90;;;;;;5037361;28;20639;-96
2021/11/30 01:49:34;;;;;;;13.13;10.10;;;4.40;99.90;;;;;;5045987;28;20278;-95
2021/11/30 01:52:01;;;;;;;11.65;9.48;;;4.40;99.90;;;;;;5039173;28;20214;-92
2021/11/30 01:54:28;;;;;;;12.75;9.20;;;4.40;99.90;;;;;;5034733;28;20229;-92
2021/11/30 01:56:57;;;;;;;9.88;8.07;;;4.40;99.90;;;;;;5034333;28;20186;-91
2021/11/30 01:59:23;;;;;;;13.02;9.18;;;4.50;99.90;;;;;;5033016;28;20221;-90
2021/11/30 02:01:50;;;;;;;11.73;8.45;;;4.40;99.90;;;;;;5033446;28;20324;-90
2021/11/30 02:04:17;;;;;;;11.75;9.32;;;4.40;99.90;;;;;;5033696;28;20190;-90
2021/11/30 02:06:44;;;;;;;11.25;8.90;;;4.40;99.90;;;;;;5033740;28;20281;-91
2021/11/30 02:09:10;;;;;;;12.57;9.60;;;4.40;99.90;;;;;;5033102;28;20245;-91
2021/11/30 02:11:38;;;;;;;14.82;10.73;;;4.40;99.90;;;;;;5033705;28;20237;-91
2021/11/30 02:14:05;;;;;;;13.18;9.70;;;4.40;99.90;;;;;;5033286;28;20258;-89
2021/11/30 02:16:31;;;;;;;12.77;9.52;;;4.40;99.90;;;;;;5033103;28;20281;-90
2021/11/30 02:19:01;;;;;;;10.10;8.38;;;4.40;99.90;;;;;;5033011;28;20239;-90
2021/11/30 02:21:32;;;;;;;13.13;10.10;;;4.40;99.90;;;;;;5032597;28;20221;-90
2021/11/30 02:24:00;;;;;;;11.40;10.05;;;4.30;99.90;;;;;;5033192;28;20195;-90
2021/11/30 02:26:27;;;;;;;13.65;9.80;;;4.30;99.90;;;;;;5032730;28;20247;-89
2021/11/30 02:28:56;;;;;;;13.95;10.18;;;4.30;99.90;;;;;;5032752;28;20191;-92
2021/11/30 02:31:26;;;;;;;13.23;10.55;;;4.30;99.90;;;;;;5032906;28;20225;-92
2021/11/30 02:33:53;;;;;;;13.13;9.85;;;4.30;99.90;;;;;;5032987;28;20186;-92
2021/11/30 02:36:24;;;;;;;13.52;9.68;;;4.30;99.90;;;;;;5033172;28;20225;-93
2021/11/30 02:38:53;;;;;;;12.63;10.48;;;4.30;99.90;;;;;;5032401;28;20191;-92
2021/11/30 02:41:20;;;;;;;16.95;11.75;;;4.40;99.90;;;;;;5016408;28;20229;-90
2021/11/30 02:43:46;;;;;;;16.65;11.45;;;4.30;99.90;;;;;;5032779;28;20195;-91
2021/11/30 02:46:32;;;;;;;15.40;10.48;;;4.30;99.90;;;;;;5032389;28;20240;-90
2021/11/30 02:48:58;;;;;;;15.30;10.95;;;4.20;99.90;;;;;;5032574;28;20193;-90
2021/11/30 02:51:25;;;;;;;14.98;11.15;;;4.30;99.90;;;;;;5032796;28;20298;-90
2021/11/30 02:53:55;;;;;;;17.80;11.75;;;4.30;99.90;;;;;;5032786;28;20194;-90
2021/11/30 02:56:21;;;;;;;13.23;10.90;;;4.20;99.90;;;;;;5031983;28;20187;-93
2021/11/30 02:58:48;;;;;;;14.93;11.05;;;4.20;99.90;;;;;;5036806;28;20214;-92
2021/11/30 03:01:15;;;;;;;15.45;12.35;;;4.20;99.90;;;;;;5036545;28;20269;-92
2021/11/30 03:03:42;;;;;;;18.30;12.38;;;4.10;99.90;;;;;;5036982;28;20232;-93
2021/11/30 03:06:08;;;;;;;17.42;12.43;;;4.20;99.90;;;;;;5036719;28;20187;-92
2021/11/30 03:08:40;;;;;;;20.05;13.38;;;4.10;99.90;;;;;;5036552;28;20274;-92
2021/11/30 03:11:09;;;;;;;17.55;12.55;;;4.10;99.90;;;;;;5036134;28;20269;-93
2021/11/30 03:13:36;;;;;;;15.18;11.82;;;4.10;99.90;;;;;;5036634;28;20594;-92
2021/11/30 03:16:04;;;;;;;14.68;12.10;;;4.10;99.90;;;;;;5036645;28;20237;-89
2021/11/30 03:18:31;;;;;;;18.88;13.60;;;4.10;99.90;;;;;;5035512;28;20197;-88
2021/11/30 03:20:57;;;;;;;19.42;13.95;;;4.10;99.90;;;;;;5035168;28;20228;-89
2021/11/30 03:23:24;;;;;;;17.48;13.30;;;4.10;99.90;;;;;;5036220;28;20340;-89
2021/11/30 03:25:50;;;;;;;18.77;13.68;;;4.00;99.90;;;;;;5036133;28;20222;-87
2021/11/30 03:28:18;;;;;;;20.17;13.13;;;4.10;99.90;;;;;;5036127;28;20183;-88
2021/11/30 03:30:57;;;;;;;21.17;14.02;;;4.10;99.90;;;;;;5035792;28;20276;-89
2021/11/30 03:36:08;;;;;;;22.48;13.57;;;4.10;99.90;;;;;;5036033;28;20201;-86
2021/11/30 03:38:35;;;;;;;19.00;13.02;;;4.10;99.90;;;;;;5035530;28;20277;-89
2021/11/30 03:41:01;;;;;;;18.23;14.77;;;4.10;99.90;;;;;;5035599;28;20310;-90
2021/11/30 03:43:29;;;;;;;18.17;13.52;;;4.20;99.90;;;;;;5035769;28;20278;-89
2021/11/30 03:45:56;;;;;;;19.15;13.70;;;4.20;99.90;;;;;;5034825;28;20228;-91
2021/11/30 03:48:22;;;;;;;19.70;13.35;;;4.20;99.90;;;;;;5034110;28;20306;-90
2021/11/30 03:50:49;;;;;;;17.80;12.80;;;4.20;99.90;;;;;;5035340;28;20317;-92
2021/11/30 03:53:15;;;;;;;20.55;13.57;;;4.20;99.90;;;;;;5036313;28;20233;-93
2021/11/30 03:55:42;;;;;;;19.85;14.35;;;4.20;99.90;;;;;;5036505;28;20210;-92
2021/11/30 03:58:08;;;;;;;18.88;13.00;;;4.20;99.90;;;;;;5036383;28;20277;-94
2021/11/30 04:00:37;;;;;;;16.25;12.50;;;4.20;99.90;;;;;;5036171;28;20202;-90
2021/11/30 04:03:04;;;;;;;17.70;14.02;;;4.20;99.90;;;;;;5036826;28;20671;-94
2021/11/30 04:05:31;;;;;;;17.95;13.52;;;4.20;99.90;;;;;;5037200;28;20694;-96
2021/11/30 04:07:58;;;;;;;19.45;14.43;;;4.20;99.90;;;;;;5036331;28;20226;-96
2021/11/30 04:10:24;;;;;;;17.48;12.52;;;4.20;99.90;;;;;;5035755;28;20258;-96
2021/11/30 04:12:52;;;;;;;17.70;12.60;;;4.20;99.90;;;;;;5036800;28;20313;-95
2021/11/30 04:15:18;;;;;;;16.05;12.80;;;4.20;99.90;;;;;;5037476;28;20250;-96
2021/11/30 04:17:46;;;;;;;16.80;12.30;;;4.20;99.90;;;;;;5037176;28;20278;-91
2021/11/30 04:20:14;;;;;;;16.10;12.25;;;4.10;99.90;;;;;;5034558;28;20273;-90
2021/11/30 04:22:42;;;;;;;15.10;11.48;;;4.10;99.90;;;;;;5034933;28;20186;-91
2021/11/30 04:25:11;;;;;;;16.20;12.88;;;4.10;99.90;;;;;;5034896;28;20218;-91
2021/11/30 04:27:38;;;;;;;15.25;12.43;;;4.20;99.90;;;;;;5035047;28;20594;-91
2021/11/30 04:30:05;;;;;;;15.40;12.30;;;4.10;99.90;;;;;;5035071;28;20191;-92
2021/11/30 04:32:32;;;;;;;16.83;11.75;;;4.10;99.90;;;;;;5035388;28;20214;-92
2021/11/30 04:35:00;;;;;;;16.75;12.20;;;4.10;99.90;;;;;;5034742;28;20214;-95
2021/11/30 04:37:27;;;;;;;17.02;12.18;;;4.10;99.90;;;;;;5035962;28;20615;-93
2021/11/30 04:39:53;;;;;;;15.95;11.50;;;4.10;99.90;;;;;;5035540;28;20633;-94
2021/11/30 04:42:20;;;;;;;15.40;11.73;;;4.10;99.90;;;;;;5032369;28;20277;-89
2021/11/30 04:44:52;;;;;;;17.98;12.43;;;4.10;99.90;;;;;;5030031;28;20194;-89
2021/11/30 04:47:18;;;;;;;15.75;11.15;;;4.10;99.90;;;;;;5034087;28;20209;-89
2021/11/30 04:49:54;;;;;;;14.02;10.85;;;4.00;99.90;;;;;;5033667;28;20325;-90
2021/11/30 04:52:22;;;;;;;15.43;11.85;;;4.10;99.90;;;;;;5033743;28;20206;-89
2021/11/30 04:54:49;;;;;;;37.05;11.52;;;4.00;99.90;;;;;;5033916;28;20273;-90
2021/11/30 04:57:15;;;;;;;15.15;10.57;;;3.90;99.90;;;;;;5016460;28;20237;-91
2021/11/30 04:59:42;;;;;;;15.68;10.63;;;3.90;99.90;;;;;;5033850;28;20607;-90
2021/11/30 05:02:08;;;;;;;12.52;9.93;;;3.80;99.90;;;;;;5033228;28;20278;-92
2021/11/30 05:04:36;;;;;;;15.60;11.15;;;3.70;99.90;;;;;;5034633;28;20258;-92
2021/11/30 05:07:03;;;;;;;17.33;11.43;;;3.70;99.90;;;;;;5034468;28;20191;-93
2021/11/30 05:09:31;;;;;;;15.35;10.32;;;3.70;99.90;;;;;;5035029;28;20352;-92
2021/11/30 05:11:58;;;;;;;12.57;10.23;;;3.70;99.90;;;;;;5034368;28;20257;-92
2021/11/30 05:14:24;;;;;;;21.92;10.98;;;3.60;99.90;;;;;;5034101;28;20249;-95
2021/11/30 05:16:51;;;;;;;14.60;10.65;;;3.60;99.90;;;;;;5035715;28;20254;-95
2021/11/30 05:19:17;;;;;;;13.82;10.50;;;3.60;99.90;;;;;;5034900;28;20615;-93
2021/11/30 05:21:44;;;;;;;15.68;10.52;;;3.50;99.90;;;;;;5034742;28;20273;-93
2021/11/30 05:24:10;;;;;;;16.92;9.77;;;3.50;99.90;;;;;;5034180;28;20618;-93
2021/11/30 05:26:39;;;;;;;13.93;9.68;;;3.60;99.90;;;;;;5034388;28;20234;-92
2021/11/30 05:29:06;;;;;;;13.45;9.60;;;3.50;99.90;;;;;;5034361;28;20665;-93
2021/11/30 05:31:33;;;;;;;16.52;10.93;;;3.60;99.90;;;;;;5034619;28;20662;-93
2021/11/30 05:34:00;;;;;;;14.70;10.00;;;3.50;99.90;;;;;;5034694;28;20218;-92
2021/11/30 05:36:27;;;;;;;14.98;9.80;;;3.50;99.90;;;;;;5034817;28;20218;-92
2021/11/30 05:38:54;;;;;;;12.38;9.73;;;3.40;99.90;;;;;;5034576;28;20250;-93
2021/11/30 05:41:20;;;;;;;11.18;9.00;;;3.50;99.90;;;;;;5034218;28;20190;-90
2021/11/30 05:43:48;;;;;;;14.10;9.63;;;3.50;99.90;;;;;;5033472;28;20214;-90
2021/11/30 05:46:15;;;;;;;13.63;8.15;;;3.40;99.90;;;;;;5033152;28;20201;-90
2021/11/30 05:48:41;;;;;;;13.13;8.90;;;3.40;99.90;;;;;;5032660;28;20275;-91
2021/11/30 05:51:08;;;;;;;13.73;9.05;;;3.40;99.90;;;;;;5033419;28;20214;-91
2021/11/30 05:53:35;;;;;;;16.77;8.90;;;3.50;99.90;;;;;;5033436;28;20229;-91
2021/11/30 05:56:04;;;;;;;18.02;9.93;;;3.40;99.90;;;;;;5035741;28;20186;-92
2021/11/30 05:58:35;;;;;;;11.70;8.75;;;3.50;99.90;;;;;;5045922;28;20658;-90
2021/11/30 06:01:09;;;;;;;12.55;8.77;;;3.50;99.90;;;;;;5040700;28;20190;-90
2021/11/30 06:03:46;;;;;;;13.32;7.75;;;3.40;99.90;;;;;;5040337;28;20209;-90
2021/11/30 06:06:12;;;;;;;10.88;8.23;;;3.40;99.90;;;;;;5018612;28;20190;-93
2021/11/30 06:08:39;;;;;;;13.38;9.20;;;3.40;99.90;;;;;;5033528;28;20277;-93
2021/11/30 06:11:05;;;;;;;13.65;8.55;;;3.40;99.90;;;;;;5034910;28;20206;-93
2021/11/30 06:13:32;;;;;;;12.90;9.00;;;3.50;99.90;;;;;;5033719;28;20250;-94
2021/11/30 06:15:58;;;;;;;12.73;8.15;;;3.50;99.90;;;;;;5034982;28;20271;-92
2021/11/30 06:18:26;;;;;;;12.20;8.80;;;3.50;99.90;;;;;;5034000;28;20287;-94
2021/11/30 06:20:53;;;;;;;10.13;6.75;;;3.50;99.90;;;;;;5032733;28;20190;-91
2021/11/30 06:23:19;;;;;;;12.20;8.07;;;3.60;99.90;;;;;;5016624;28;20213;-87
2021/11/30 06:25:46;;;;;;;9.00;6.45;;;3.60;99.90;;;;;;5033987;28;20269;-92
2021/11/30 06:28:13;;;;;;;10.82;7.20;;;3.50;99.90;;;;;;5035422;28;20201;-94
2021/11/30 06:30:39;;;;;;;11.15;8.02;;;3.40;99.90;;;;;;5035375;28;20190;-94
2021/11/30 06:33:06;;;;;;;9.35;7.30;;;3.50;99.90;;;;;;5037622;28;20253;-96
2021/11/30 06:35:36;;;;;;;10.85;7.68;;;3.50;99.90;;;;;;5038221;28;20600;-93
2021/11/30 06:38:03;;;;;;;12.30;7.97;;;3.50;99.90;;;;;;5037180;28;20195;-96
2021/11/30 06:40:29;;;;;;;10.60;7.90;;;3.50;99.90;;;;;;5046872;28;20213;-94
2021/11/30 06:42:56;;;;;;;9.77;7.10;;;3.50;99.90;;;;;;5034748;28;20234;-92
2021/11/30 06:45:23;;;;;;;10.40;7.85;;;3.50;99.90;;;;;;5037536;28;20226;-93
2021/11/30 06:47:49;;;;;;;12.27;8.50;;;3.50;99.90;;;;;;5036600;28;20191;-91
2021/11/30 06:50:16;;;;;;;13.57;8.20;;;3.50;99.90;;;;;;5034665;28;20281;-92
2021/11/30 06:52:44;;;;;;;11.95;8.82;;;3.40;99.90;;;;;;5035365;28;20253;-92
2021/11/30 06:55:11;;;;;;;11.20;8.60;;;3.40;99.90;;;;;;5035834;28;20183;-92
2021/11/30 06:57:38;;;;;;;11.23;8.80;;;3.40;99.90;;;;;;5036436;28;20269;-91
2021/11/30 07:00:05;;;;;;;10.68;8.52;;;3.40;99.90;;;;;;5037099;28;20277;-90
2021/11/30 07:02:34;;;;;;;13.02;8.75;;;3.40;99.90;;;;;;5037129;28;20186;-90
2021/11/30 07:05:06;;;;;;;10.70;8.07;;;3.40;99.90;;;;;;5035797;28;20198;-89
2021/11/30 07:07:45;;;;;;;11.23;7.80;;;3.40;99.90;;;;;;5036955;28;20183;-94
2021/11/30 07:10:33;;;;;;;12.00;8.45;;;3.40;99.90;;;;;;5037718;28;20195;-91
2021/11/30 07:13:15;;;;;;;11.30;8.75;;;3.40;99.90;;;;;;5035172;28;20230;-85
2021/11/30 07:15:43;;;;;;;14.48;9.48;;;3.50;99.90;;;;;;5035787;28;20194;-86
2021/11/30 07:18:10;;;;;;;13.52;8.70;;;3.50;99.90;;;;;;5036132;28;20220;-95
2021/11/30 07:20:37;;;;;;;13.85;8.77;;;3.50;99.90;;;;;;5041823;28;20191;-94
2021/11/30 07:23:04;;;;;;;11.57;9.07;;;3.50;99.90;;;;;;5038864;28;20230;-94
2021/11/30 07:25:32;;;;;;;11.80;8.43;;;3.50;99.90;;;;;;5037574;28;20630;-93
2021/11/30 07:27:58;;;;;;;11.77;8.75;;;3.50;99.90;;;;;;5036860;28;20229;-94
2021/11/30 07:30:25;;;;;;;14.80;8.95;;;3.50;99.90;;;;;;5037175;28;20666;-96
2021/11/30 07:32:51;;;;;;;11.88;8.95;;;3.40;99.90;;;;;;5025766;28;20708;-93
2021/11/30 07:35:20;;;;;;;13.35;9.50;;;3.50;99.90;;;;;;5036428;28;20211;-93
2021/11/30 07:37:47;;;;;;;12.68;8.60;;;3.50;99.90;;;;;;5038649;28;20190;-94
2021/11/30 07:40:13;;;;;;;12.38;9.00;;;3.50;99.90;;;;;;5043153;28;20214;-95
2021/11/30 07:42:42;;;;;;;11.40;8.30;;;3.50;99.90;;;;;;5035856;28;20215;-93
2021/11/30 07:45:10;;;;;;;13.02;8.30;;;3.20;99.90;;;;;;5035274;28;20297;-92
2021/11/30 07:47:36;;;;;;;11.20;8.52;;;3.50;99.90;;;;;;5044887;28;20182;-92
2021/11/30 07:50:03;;;;;;;13.85;9.02;;;3.50;99.90;;;;;;5043481;28;20190;-91
2021/11/30 07:52:31;;;;;;;12.20;9.10;;;3.50;99.90;;;;;;5039962;28;20325;-94
2021/11/30 07:55:04;;;;;;;14.65;9.32;;;3.50;99.90;;;;;;5035512;28;20194;-94
2021/11/30 07:57:30;;;;;;;10.20;8.68;;;3.60;99.90;;;;;;5035409;28;20223;-94
2021/11/30 07:59:58;;;;;;;12.00;8.75;;;3.60;99.90;;;;;;5041975;28;20210;-94
2021/11/30 08:02:25;;;;;;;11.05;7.97;;;3.60;99.90;;;;;;5041363;28;20590;-94
2021/11/30 08:04:51;;;;;;;13.63;9.07;;;3.70;99.90;;;;;;5039833;28;20606;-93
2021/11/30 08:07:18;;;;;;;8.70;7.60;;;3.60;99.90;;;;;;5041952;28;20187;-94
2021/11/30 08:09:48;;;;;;;10.38;8.20;;;3.60;99.90;;;;;;5035496;28;20610;-92
2021/11/30 08:12:15;;;;;;;11.68;8.07;;;3.60;99.90;;;;;;5034698;28;20297;-92
2021/11/30 08:14:41;;;;;;;11.10;8.50;;;3.60;99.90;;;;;;5034507;28;20313;-91
2021/11/30 08:17:13;;;;;;;11.32;7.95;;;3.60;99.90;;;;;;5034887;28;20651;-91
2021/11/30 08:19:40;;;;;;;9.77;7.20;;;3.60;99.90;;;;;;5035327;28;20189;-93
2021/11/30 08:22:06;;;;;;;10.30;7.93;;;3.60;99.90;;;;;;5038736;28;20229;-95
2021/11/30 08:24:33;;;;;;;13.63;7.80;;;3.60;99.90;;;;;;5037292;28;20618;-95
2021/11/30 08:27:00;;;;;;;10.23;8.10;;;3.60;99.90;;;;;;5041031;28;20187;-95
2021/11/30 08:29:26;;;;;;;9.07;7.80;;;3.70;99.90;;;;;;5042494;28;20187;-95
2021/11/30 08:31:55;;;;;;;7.25;6.47;;;3.70;99.90;;;;;;5041541;28;20214;-96
2021/11/30 08:34:23;;;;;;;8.40;6.57;;;3.60;99.90;;;;;;5038878;28;20187;-93
2021/11/30 08:36:50;;;;;;;8.02;7.07;;;3.70;99.90;;;;;;5037217;28;20190;-95
2021/11/30 08:39:17;;;;;;;11.02;6.65;;;3.70;99.90;;;;;;5037817;28;20187;-94
2021/11/30 08:41:43;;;;;;;5.97;5.38;;;3.70;99.90;;;;;;5038860;28;20186;-94
2021/11/30 08:44:10;;;;;;;7.88;6.03;;;3.70;99.90;;;;;;5038081;28;20191;-94
2021/11/30 08:46:40;;;;;;;7.30;5.78;;;3.70;99.90;;;;;;5038202;28;20210;-93
2021/11/30 08:49:06;;;;;;;6.68;5.50;;;3.70;99.90;;;;;;5038813;28;20225;-94
2021/11/30 08:51:34;;;;;;;6.53;5.82;;;3.40;99.90;;;;;;5036997;28;20186;-94
2021/11/30 08:54:04;;;;;;;5.80;5.30;;;3.80;99.90;;;;;;5021478;28;20198;-96
2021/11/30 08:56:30;;;;;;;7.43;6.55;;;3.80;99.90;;;;;;5035876;28;20186;-94
2021/11/30 08:58:57;;;;;;;6.55;5.82;;;3.80;99.90;;;;;;5035879;28;20214;-95
2021/11/30 09:01:24;;;;;;;4.88;4.47;;;3.80;99.90;;;;;;5036249;28;20222;-94
2021/11/30 09:03:51;;;;;;;6.68;5.68;;;3.80;99.90;;;;;;5036366;28;20229;-95
2021/11/30 09:06:17;;;;;;;5.97;5.38;;;3.80;99.90;;;;;;5034858;28;20214;-94
2021/11/30 09:08:45;;;;;;;7.63;5.10;;;3.80;99.90;;;;;;5033685;28;20225;-90
2021/11/30 09:11:12;;;;;;;6.53;5.93;;;3.90;99.90;;;;;;5034165;28;20218;-94
2021/11/30 09:13:38;;;;;;;6.45;5.40;;;4.00;99.90;;;;;;5035850;28;20242;-95
2021/11/30 09:16:05;;;;;;;5.70;5.20;;;3.90;99.90;;;;;;5034828;28;20241;-95
2021/11/30 09:18:32;;;;;;;5.63;5.13;;;4.00;99.90;;;;;;5035160;28;20269;-95
2021/11/30 09:20:59;;;;;;;5.15;4.50;;;4.00;99.90;;;;;;5035754;28;20191;-93
2021/11/30 09:23:28;;;;;;;4.93;4.53;;;4.00;99.90;;;;;;5036214;28;20210;-94
2021/11/30 09:25:57;;;;;;;5.22;4.72;;;4.00;99.90;;;;;;5037979;28;20191;-95
2021/11/30 09:28:24;;;;;;;4.88;4.47;;;4.00;99.90;;;;;;5042649;28;20198;-96
2021/11/30 09:30:50;;;;;;;4.93;4.43;;;4.00;99.90;;;;;;5043193;28;20230;-96
2021/11/30 09:33:17;;;;;;;4.70;4.40;;;4.00;99.90;;;;;;5042810;28;20246;-95
2021/11/30 09:35:44;;;;;;;6.22;4.75;;;4.00;99.90;;;;;;5040894;28;20226;-92
2021/11/30 09:38:11;;;;;;;5.85;4.85;;;4.00;99.90;;;;;;5033966;28;20270;-94
2021/11/30 09:40:39;;;;;;;3.92;3.63;;;4.10;99.90;;;;;;5039180;28;20190;-92
2021/11/30 09:43:08;;;;;;;4.60;4.30;;;4.10;99.90;;;;;;5040671;28;20218;-96
2021/11/30 09:45:37;;;;;;;5.30;4.40;;;4.10;99.90;;;;;;5038121;28;20186;-96
2021/11/30 09:48:09;;;;;;;4.00;3.70;;;4.20;99.90;;;;;;5034057;28;20197;-93
2021/11/30 09:50:36;;;;;;;4.53;4.13;;;4.20;99.90;;;;;;5033412;28;20538;-80
2021/11/30 09:53:03;;;;;;;4.25;3.83;;;4.10;99.90;;;;;;5032645;28;20669;-81
2021/11/30 09:55:30;;;;;;;4.82;4.35;;;4.20;99.90;;;;;;5029038;28;20193;-81
2021/11/30 09:57:56;;;;;;;4.82;4.32;;;4.20;99.90;;;;;;5032238;28;20686;-80
2021/11/30 10:00:26;;;;;;;4.30;4.00;;;4.20;99.90;;;;;;5031916;28;20218;-79
2021/11/30 10:02:55;;;;;;;7.55;4.80;;;4.10;99.90;;;;;;5031155;28;20285;-78
2021/11/30 10:05:22;;;;;;;4.53;4.13;;;4.20;99.90;;;;;;5026185;28;20190;-80
2021/11/30 10:07:52;;;;;;;4.38;3.97;;;4.30;99.90;;;;;;5032106;28;20651;-79
2021/11/30 10:10:22;;;;;;;4.90;4.40;;;4.40;99.90;;;;;;5031997;28;20648;-78
2021/11/30 10:12:55;;;;;;;4.28;3.97;;;4.40;99.90;;;;;;5031877;28;20214;-78
2021/11/30 10:15:23;;;;;;;5.38;4.97;;;4.40;99.90;;;;;;5020845;28;20317;-78
2021/11/30 10:17:50;;;;;;;4.75;4.35;;;4.50;99.90;;;;;;5032185;28;20186;-77
2021/11/30 10:20:16;;;;;;;4.22;3.85;;;4.50;99.90;;;;;;5031996;28;20191;-78
2021/11/30 10:22:48;;;;;;;5.28;4.10;;;4.50;99.90;;;;;;5027186;28;20246;-78
2021/11/30 10:25:19;;;;;;;5.53;4.53;;;4.50;99.90;;;;;;5031974;28;20214;-78
2021/11/30 10:27:48;;;;;;;4.60;4.30;;;4.50;99.90;;;;;;5032056;28;20531;-80
2021/11/30 10:30:18;;;;;;;4.30;4.00;;;4.60;99.90;;;;;;5031782;28;20747;-80
2021/11/30 10:32:47;;;;;;;4.60;4.20;;;4.60;99.90;;;;;;5027472;28;20218;-80
2021/11/30 10:35:15;;;;;;;5.22;3.70;;;4.60;99.90;;;;;;5031983;28;20191;-80
2021/11/30 10:37:44;;;;;;;5.18;4.68;;;4.60;99.90;;;;;;5031869;28;20187;-80
2021/11/30 10:40:14;;;;;;;4.45;4.15;;;4.70;99.90;;;;;;5031593;28;20531;-80
2021/11/30 10:42:51;;;;;;;3.83;3.58;;;4.80;99.90;;;;;;5031750;28;20285;-79
2021/11/30 10:45:26;;;;;;;3.65;3.38;;;4.80;99.90;;;;;;5031889;28;20182;-80
2021/11/30 10:47:54;;;;;;;4.20;3.90;;;4.80;99.90;;;;;;5031901;28;20182;-80
2021/11/30 10:50:25;;;;;;;5.38;4.47;;;5.00;99.90;;;;;;5031658;28;20279;-80
2021/11/30 10:52:55;;;;;;;3.85;3.55;;;5.00;99.90;;;;;;5031601;28;20213;-80
2021/11/30 10:55:21;;;;;;;5.97;4.40;;;5.00;99.90;;;;;;5027889;28;20194;-80
2021/11/30 10:57:52;;;;;;;4.18;3.88;;;5.10;99.90;;;;;;5031665;28;20278;-80
2021/11/30 11:00:24;;;;;;;4.57;3.83;;;5.20;99.90;;;;;;5031666;28;20616;-80
2021/11/30 11:02:55;;;;;;;3.55;3.33;;;5.20;99.90;;;;;;5031757;28;20190;-80
2021/11/30 11:05:26;;;;;;;4.50;4.20;;;5.20;99.90;;;;;;5020453;28;20207;-80
2021/11/30 11:08:05;;;;;;;5.20;4.80;;;5.20;99.90;;;;;;5031769;28;20274;-79
2021/11/30 11:10:33;;;;;;;3.92;3.63;;;5.30;99.90;;;;;;5031732;28;20190;-78
2021/11/30 11:13:18;;;;;;;3.67;3.47;;;5.30;99.90;;;;;;5030703;28;20231;-78
2021/11/30 11:15:44;;;;;;;3.88;3.58;;;5.40;99.90;;;;;;5023476;28;20538;-78
2021/11/30 11:18:28;;;;;;;4.22;3.83;;;5.40;99.90;;;;;;5032734;28;20593;-77
2021/11/30 11:21:11;;;;;;;3.63;3.35;;;5.50;99.90;;;;;;5031851;28;20183;-77
2021/11/30 11:23:42;;;;;;;3.00;2.90;;;5.50;99.90;;;;;;5033159;28;20294;-78
2021/11/30 11:26:21;;;;;;;3.40;3.15;;;5.50;99.90;;;;;;5034613;28;20190;-77
2021/11/30 11:28:49;;;;;;;2.60;2.40;;;5.60;99.90;;;;;;5030898;28;20413;-77
2021/11/30 11:31:16;;;;;;;2.25;2.15;;;5.60;99.90;;;;;;5034739;28;20218;-77
2021/11/30 11:33:44;;;;;;;2.78;2.30;;;5.70;99.90;;;;;;5035103;28;20214;-79
2021/11/30 11:36:11;;;;;;;2.30;2.20;;;5.70;99.90;;;;;;5034716;28;20282;-77
2021/11/30 11:38:39;;;;;;;1.83;1.73;;;5.80;99.90;;;;;;5034683;28;20229;-77
2021/11/30 11:41:06;;;;;;;2.25;2.15;;;5.80;99.90;;;;;;5034875;28;20269;-77
2021/11/30 11:43:34;;;;;;;3.72;3.30;;;5.80;99.90;;;;;;5034652;28;20186;-78
2021/11/30 11:46:00;;;;;;;2.25;2.05;;;5.90;99.90;;;;;;5034928;28;20278;-77
2021/11/30 11:48:28;;;;;;;3.33;2.50;;;5.90;99.90;;;;;;5034117;28;20760;-77
2021/11/30 11:50:58;;;;;;;2.17;1.98;;;5.90;99.90;;;;;;5034450;28;20233;-76
2021/11/30 11:53:27;;;;;;;3.50;2.47;;;5.90;99.90;;;;;;5034816;28;20305;-76
2021/11/30 11:56:15;;;;;;;2.38;2.03;;;5.90;99.90;;;;;;5034673;28;20183;-76
2021/11/30 11:58:44;;;;;;;6.40;2.35;;;6.00;99.90;;;;;;5034456;28;20182;-76
2021/11/30 12:01:15;;;;;;;2.53;1.50;;;6.00;99.90;;;;;;5034382;28;20625;-76
2021/11/30 12:03:54;;;;;;;2.33;1.85;;;6.00;99.90;;;;;;5034172;28;20290;-76
2021/11/30 12:06:25;;;;;;;2.35;1.63;;;6.00;99.90;;;;;;5034283;28;20277;-76
2021/11/30 12:09:10;;;;;;;3.35;1.85;;;6.00;99.90;;;;;;5034154;28;20183;-76
2021/11/30 12:11:38;;;;;;;4.70;1.85;;;6.00;99.90;;;;;;5025098;28;20183;-76
2021/11/30 12:14:13;;;;;;;14.35;3.35;;;5.90;99.90;;;;;;5033929;28;20747;-76
2021/11/30 12:17:03;;;;;;;2.53;1.50;;;5.90;99.90;;;;;;5034199;28;20194;-76
2021/11/30 12:19:33;;;;;;;1.55;1.40;;;5.80;99.90;;;;;;5024089;28;20222;-76
2021/11/30 12:22:00;;;;;;;3.70;1.13;;;5.80;99.90;;;;;;5033942;28;20286;-76
2021/11/30 12:24:38;;;;;;;6.07;1.60;;;5.80;99.90;;;;;;5033633;28;20314;-77
2021/11/30 12:27:42;;;;;;;4.03;1.58;;;5.80;99.90;;;;;;5033881;28;20225;-76
2021/11/30 12:30:37;;;;;;;8.32;1.60;;;5.70;99.90;;;;;;5033308;28;20187;-76
2021/11/30 12:33:05;;;;;;;3.35;1.38;;;5.70;99.90;;;;;;5031744;28;20293;-78
2021/11/30 12:35:53;;;;;;;2.20;1.17;;;5.70;99.90;;;;;;5033752;28;20183;-77
2021/11/30 12:38:24;;;;;;;1.75;1.00;;;5.70;99.90;;;;;;5033535;28;20193;-77
2021/11/30 12:40:51;;;;;;;6.22;1.83;;;5.70;99.90;;;;;;5033710;28;20278;-78
2021/11/30 12:43:23;;;;;;;4.55;1.80;;;5.80;99.90;;;;;;5033269;28;20229;-78
2021/11/30 12:45:53;;;;;;;2.22;1.70;;;5.80;99.90;;;;;;5033687;28;20565;-79
2021/11/30 12:48:23;;;;;;;2.15;1.90;;;5.90;99.90;;;;;;5033131;28;20186;-78
2021/11/30 12:50:57;;;;;;;4.63;1.80;;;5.90;99.90;;;;;;5033677;28;20191;-79
2021/11/30 12:56:47;;;;;;;3.25;1.73;;;5.90;99.90;;;;;;5118741;27;20513;-79
2021/11/30 12:59:15;;;;;;;5.10;1.98;;;6.00;99.90;;;;;;5109191;28;20274;-80
2021/11/30 13:01:42;;;;;;;7.57;1.88;;;6.00;99.90;;;;;;5104521;28;20216;-80